createdAt,value
2022-09-24T00:01:57.778Z,7.50
2022-09-24T00:07:25.167Z,2.95
2022-09-24T00:12:49.242Z,3.78
2022-09-24T00:18:14.885Z,3.00
2022-09-24T00:23:40.954Z,17.05
2022-09-24T00:29:08.166Z,3.30
2022-09-24T00:34:32.552Z,4.10
2022-09-24T00:39:58.915Z,4.68
2022-09-24T00:45:25.780Z,8.82
2022-09-24T00:50:50.269Z,4.53
2022-09-24T00:56:17.958Z,4.55
2022-09-24T01:01:43.225Z,6.97
2022-09-24T01:07:08.163Z,3.22
2022-09-24T01:12:43.088Z,3.83
2022-09-24T01:18:15.155Z,4.80
2022-09-24T01:24:31.637Z,4.97
2022-09-24T01:30:03.867Z,4.78
2022-09-24T01:35:33.081Z,3.70
2022-09-24T01:41:03.295Z,2.95
2022-09-24T01:46:29.634Z,4.72
2022-09-24T01:52:01.474Z,5.63
2022-09-24T01:57:33.813Z,3.78
2022-09-24T02:03:06.957Z,2.88
2022-09-24T02:08:38.117Z,2.80
2022-09-24T02:14:10.679Z,3.15
2022-09-24T02:19:39.681Z,3.22
2022-09-24T02:25:10.299Z,5.77
2022-09-24T02:30:42.067Z,3.33
2022-09-24T02:36:09.177Z,3.53
2022-09-24T02:41:35.416Z,5.38
2022-09-24T02:47:00.087Z,3.42
2022-09-24T02:52:25.589Z,4.63
2022-09-24T02:57:50.100Z,3.40
2022-09-24T03:03:15.040Z,3.05
2022-09-24T03:08:41.614Z,5.55
2022-09-24T03:14:07.243Z,3.78
2022-09-24T03:19:35.505Z,3.22
2022-09-24T03:25:03.283Z,3.22
2022-09-24T03:30:45.499Z,4.13
2022-09-24T03:36:12.416Z,3.13
2022-09-24T03:41:39.837Z,5.95
2022-09-24T03:47:07.654Z,3.53
2022-09-24T03:52:33.090Z,9.88
2022-09-24T03:57:58.856Z,5.18
2022-09-24T04:03:24.367Z,2.60
2022-09-24T04:08:49.541Z,3.53
2022-09-24T04:14:17.940Z,9.05
2022-09-24T04:19:43.989Z,2.60
2022-09-24T04:25:14.619Z,4.20
2022-09-24T04:30:40.488Z,7.82
2022-09-24T04:36:05.950Z,3.45
2022-09-24T04:41:30.293Z,7.38
2022-09-24T04:47:03.132Z,2.90
2022-09-24T04:52:29.772Z,5.82
2022-09-24T04:57:57.244Z,4.72
2022-09-24T05:03:22.989Z,3.60
2022-09-24T05:08:47.388Z,3.28
2022-09-24T05:14:11.475Z,3.72
2022-09-24T05:19:37.182Z,4.43
2022-09-24T05:25:02.480Z,2.55
2022-09-24T05:30:28.839Z,4.50
2022-09-24T05:35:58.742Z,2.40
2022-09-24T05:41:23.347Z,3.60
2022-09-24T05:46:49.378Z,4.38
2022-09-24T05:52:15.782Z,3.90
2022-09-24T05:57:41.312Z,3.17
2022-09-24T06:03:08.056Z,5.53
2022-09-24T06:08:38.428Z,5.07
2022-09-24T06:14:04.568Z,4.25
2022-09-24T06:19:29.638Z,2.45
2022-09-24T06:24:56.147Z,2.92
2022-09-24T06:30:20.882Z,3.20
2022-09-24T06:35:45.665Z,3.13
2022-09-24T06:41:12.989Z,3.42
2022-09-24T06:46:41.386Z,8.95
2022-09-24T06:52:05.957Z,7.55
2022-09-24T06:57:31.612Z,7.22
2022-09-24T07:02:56.147Z,6.07
2022-09-24T07:08:21.437Z,4.38
2022-09-24T07:13:47.627Z,4.32
2022-09-24T07:19:14.110Z,3.92
2022-09-24T07:24:38.721Z,3.30
2022-09-24T07:30:09.721Z,4.13
2022-09-24T07:35:35.514Z,3.53
2022-09-24T07:41:00.112Z,3.63
2022-09-24T07:46:26.520Z,5.22
2022-09-24T07:51:51.608Z,4.30
2022-09-24T07:57:17.262Z,3.35
2022-09-24T08:02:43.045Z,7.72
2022-09-24T08:08:07.409Z,3.90
2022-09-24T08:13:31.339Z,5.22
2022-09-24T08:18:56.892Z,5.60
2022-09-24T08:24:21.386Z,8.35
2022-09-24T08:29:51.051Z,10.40
2022-09-24T08:35:17.439Z,14.07
2022-09-24T08:40:47.099Z,10.43
2022-09-24T08:46:35.436Z,5.25
2022-09-24T08:52:14.337Z,5.40
2022-09-24T08:57:48.610Z,5.10
2022-09-24T09:03:19.358Z,6.72
2022-09-24T09:09:06.756Z,6.20
2022-09-24T09:14:42.751Z,4.65
2022-09-24T09:20:12.781Z,5.50
2022-09-24T09:31:09.468Z,5.72
2022-09-24T09:36:45.301Z,6.30
2022-09-24T09:42:26.994Z,4.68
2022-09-24T09:47:56.440Z,5.88
2022-09-24T09:53:26.295Z,4.35
2022-09-24T09:58:55.893Z,4.13
2022-09-24T10:04:29.995Z,3.90
2022-09-24T10:10:18.193Z,6.75
2022-09-24T10:15:53.454Z,22.30
2022-09-24T10:21:30.849Z,8.55
2022-09-24T10:26:55.445Z,6.35
2022-09-24T10:32:23.077Z,15.00
2022-09-24T10:37:52.951Z,3.78
2022-09-24T10:43:20.577Z,6.28
2022-09-24T10:48:49.831Z,11.10
2022-09-24T10:54:35.396Z,9.77
2022-09-24T11:00:12.719Z,4.72
2022-09-24T11:05:46.249Z,4.85
2022-09-24T11:11:26.220Z,4.97
2022-09-24T11:17:19.707Z,4.07
2022-09-24T11:23:27.514Z,3.30
2022-09-24T11:29:10.489Z,8.10
2022-09-24T11:34:52.945Z,18.10
2022-09-24T11:40:31.133Z,28.25
2022-09-24T11:46:12.154Z,32.95
2022-09-24T11:51:50.762Z,47.17
2022-09-24T11:57:23.186Z,50.90
2022-09-24T12:02:52.332Z,13.40
2022-09-24T12:08:21.609Z,4.40
2022-09-24T12:13:52.634Z,4.90
2022-09-24T12:19:23.398Z,2.80
2022-09-24T12:24:53.139Z,5.30
2022-09-24T12:36:13.113Z,7.05
2022-09-24T12:41:40.296Z,6.00
2022-09-24T12:47:07.274Z,6.90
2022-09-24T12:52:35.523Z,5.90
2022-09-24T12:58:03.183Z,8.10
2022-09-24T13:03:35.106Z,5.93
2022-09-24T13:08:59.527Z,7.72
2022-09-24T13:14:29.656Z,10.50
2022-09-24T13:20:00.440Z,6.20
2022-09-24T13:25:26.778Z,7.90
2022-09-24T13:30:54.979Z,3.40
2022-09-24T13:36:30.024Z,5.97
2022-09-24T13:42:02.225Z,3.13
2022-09-24T13:47:31.807Z,2.72
2022-09-24T13:53:04.685Z,2.88
2022-09-24T13:58:31.868Z,2.25
2022-09-24T14:04:00.128Z,3.15
2022-09-24T14:09:31.075Z,4.80
2022-09-24T14:14:58.418Z,12.20
2022-09-24T14:20:23.946Z,7.45
2022-09-24T14:25:52.361Z,5.35
2022-09-24T14:31:16.949Z,6.50
2022-09-24T14:36:44.607Z,4.55
2022-09-24T14:42:18.681Z,5.28
2022-09-24T14:47:45.273Z,7.63
2022-09-24T14:53:14.996Z,5.03
2022-09-24T14:58:41.061Z,4.57
2022-09-24T15:04:08.909Z,4.15
2022-09-24T15:09:33.550Z,7.03
2022-09-24T15:15:01.436Z,4.30
2022-09-24T15:20:25.555Z,7.60
2022-09-24T15:25:50.477Z,8.27
2022-09-24T15:31:17.501Z,11.05
2022-09-24T15:36:42.140Z,5.95
2022-09-24T15:42:06.825Z,4.75
2022-09-24T15:47:32.498Z,2.10
2022-09-24T15:52:59.841Z,4.55
2022-09-24T15:58:26.892Z,9.88
2022-09-24T16:03:54.334Z,7.57
2022-09-24T16:09:18.340Z,4.25
2022-09-24T16:14:42.507Z,3.03
2022-09-24T16:20:09.936Z,11.20
2022-09-24T16:25:34.518Z,9.88
2022-09-24T16:30:58.915Z,6.55
2022-09-24T16:36:25.143Z,6.80
2022-09-24T16:41:50.453Z,5.78
2022-09-24T16:47:16.461Z,4.82
2022-09-24T16:52:44.865Z,5.78
2022-09-24T16:58:11.224Z,3.85
2022-09-24T17:03:36.298Z,5.43
2022-09-24T17:09:19.353Z,6.53
2022-09-24T17:14:44.139Z,5.50
2022-09-24T17:20:10.281Z,9.27
2022-09-24T17:25:36.702Z,5.10
2022-09-24T17:31:01.632Z,6.32
2022-09-24T17:36:27.311Z,6.88
2022-09-24T17:41:52.891Z,7.28
2022-09-24T17:47:17.682Z,5.05
2022-09-24T17:52:42.696Z,5.25
2022-09-24T17:58:08.473Z,3.50
2022-09-24T18:03:32.975Z,2.45
2022-09-24T18:08:58.121Z,3.80
2022-09-24T18:14:24.464Z,3.17
2022-09-24T18:19:48.720Z,2.60
2022-09-24T18:25:14.207Z,2.70
2022-09-24T18:30:39.694Z,3.58
2022-09-24T18:36:06.130Z,5.70
2022-09-24T18:41:32.328Z,3.78
2022-09-24T18:46:57.822Z,3.45
2022-09-24T18:52:22.096Z,5.10
2022-09-24T18:57:46.896Z,4.60
2022-09-24T19:03:13.116Z,6.82
2022-09-24T19:08:37.919Z,5.68
2022-09-24T19:14:03.215Z,7.88
2022-09-24T19:19:29.643Z,6.45
2022-09-24T19:24:53.949Z,7.15
2022-09-24T19:30:19.953Z,8.07
2022-09-24T19:35:54.373Z,8.50
2022-09-24T19:41:22.845Z,8.35
2022-09-24T19:46:47.661Z,9.05
2022-09-24T19:52:13.579Z,4.72
2022-09-24T19:57:40.152Z,2.70
2022-09-24T20:03:05.225Z,2.75
2022-09-24T20:08:31.329Z,2.70
2022-09-24T20:13:57.888Z,2.97
2022-09-24T20:19:23.543Z,3.10
2022-09-24T20:24:49.733Z,2.20
2022-09-24T20:30:16.171Z,2.00
2022-09-24T20:35:42.219Z,1.63
2022-09-24T20:41:09.980Z,3.97
2022-09-24T20:46:34.485Z,2.35
2022-09-24T20:51:59.022Z,1.70
2022-09-24T20:57:25.368Z,2.53
2022-09-24T21:02:51.260Z,1.70
2022-09-24T21:08:16.741Z,2.33
2022-09-24T21:13:45.756Z,2.22
2022-09-24T21:19:09.731Z,2.78
2022-09-24T21:24:36.013Z,2.95
2022-09-24T21:30:01.873Z,3.63
2022-09-24T21:35:27.232Z,5.90
2022-09-24T21:40:54.668Z,7.65
2022-09-24T21:46:20.813Z,4.43
2022-09-24T21:51:46.225Z,3.60
2022-09-24T21:57:10.972Z,5.07
2022-09-24T22:02:41.183Z,5.40
2022-09-24T22:08:11.799Z,5.03
2022-09-24T22:13:38.096Z,2.83
2022-09-24T22:19:05.024Z,4.20
2022-09-24T22:24:30.457Z,2.85
2022-09-24T22:29:58.105Z,4.82
2022-09-24T22:35:43.459Z,5.55
2022-09-24T22:41:12.135Z,18.20
2022-09-24T22:46:41.377Z,11.07
2022-09-24T22:52:07.597Z,5.22
2022-09-24T22:57:34.400Z,3.10
2022-09-24T23:02:58.936Z,2.20
2022-09-24T23:08:25.560Z,2.13
2022-09-24T23:13:54.974Z,3.53
2022-09-24T23:19:21.390Z,3.00
2022-09-24T23:24:47.479Z,4.45
2022-09-24T23:30:12.704Z,3.92
2022-09-24T23:35:38.422Z,4.30
2022-09-24T23:41:05.467Z,3.35
2022-09-24T23:46:30.591Z,4.13
2022-09-24T23:51:55.769Z,3.20
2022-09-24T23:57:20.827Z,3.05
